Time;durP1;ratioP1;P1;durP2;ratioP2;P2;SDS_P1;SDS_P2;PMS_P1;PMS_P2;Temp;Humidity;BMP_temperature;BMP_pressure;BME280_temperature;BME280_humidity;BME280_pressure;Samples;Min_cycle;Max_cycle;Signal;HPM_P1;HPM_P2
2022/06/15 00:01:40;;;;;;;9.32;5.70;;;;;;;19.98;100.00;94763.56;4980584;28;20035;-87
2022/06/15 00:04:05;;;;;;;8.90;5.50;;;;;;;19.98;100.00;94761.66;4963410;28;20432;-87
2022/06/15 00:06:37;;;;;;;15.32;5.82;;;;;;;19.59;100.00;94761.56;4979336;28;20030;-87
2022/06/15 00:09:02;;;;;;;11.95;5.78;;;;;;;19.89;100.00;94760.91;4978189;28;20455;-87
2022/06/15 00:11:34;;;;;;;14.30;5.85;;;;;;;20.08;100.00;94760.53;4979054;28;20117;-87
2022/06/15 00:14:06;;;;;;;14.15;5.68;;;;;;;19.61;100.00;94763.91;4963268;28;20456;-87
2022/06/15 00:16:32;;;;;;;15.40;6.70;;;;;;;19.26;100.00;94761.28;4963323;28;20058;-88
2022/06/15 00:18:57;;;;;;;14.10;6.25;;;;;;;19.43;100.00;94763.91;4963018;28;20030;-87
2022/06/15 00:21:22;;;;;;;11.02;5.50;;;;;;;19.78;100.00;94763.09;4980441;28;20041;-87
2022/06/15 00:23:48;;;;;;;17.83;6.55;;;;;;;19.51;100.00;94757.06;4984211;28;20030;-88
2022/06/15 00:26:14;;;;;;;12.30;6.03;;;;;;;19.43;100.00;94755.19;4995554;28;20034;-87
2022/06/15 00:28:40;;;;;;;12.73;5.65;;;;;;;19.62;100.00;94765.47;4993044;28;20486;-88
2022/06/15 00:31:06;;;;;;;10.15;6.00;;;;;;;19.90;100.00;94760.56;4998065;28;20081;-87
2022/06/15 00:33:31;;;;;;;12.57;5.88;;;;;;;20.05;100.00;94758.53;4991147;28;20384;-87
2022/06/15 00:36:06;;;;;;;15.68;5.70;;;;;;;19.92;100.00;94761.06;4982988;28;20038;-88
2022/06/15 00:38:40;;;;;;;17.90;6.75;;;;;;;19.45;100.00;94767.06;4978580;28;20093;-87
2022/06/15 00:41:09;;;;;;;16.63;6.68;;;;;;;19.32;100.00;94763.47;4962792;28;20033;-87
2022/06/15 00:43:44;;;;;;;9.13;6.32;;;;;;;19.10;100.00;94758.31;4978911;28;20125;-87
2022/06/15 00:46:16;;;;;;;15.25;6.93;;;;;;;18.99;100.00;94763.09;4962504;28;20035;-87
2022/06/15 00:48:43;;;;;;;15.35;6.45;;;;;;;18.97;100.00;94760.78;4978297;28;20031;-88
2022/06/15 00:51:09;;;;;;;14.95;7.28;;;;;;;18.90;100.00;94757.78;4962524;28;20043;-88
2022/06/15 00:53:35;;;;;;;10.82;6.68;;;;;;;19.02;100.00;94758.00;4978438;28;20030;-87
2022/06/15 00:56:01;;;;;;;11.90;5.75;;;;;;;19.35;100.00;94759.41;4978704;28;20039;-87
2022/06/15 00:58:27;;;;;;;12.18;5.57;;;;;;;19.52;100.00;94760.50;4978326;28;20058;-87
2022/06/15 01:00:54;;;;;;;15.50;5.95;;;;;;;19.39;100.00;94757.69;4978413;28;20035;-88
2022/06/15 01:03:19;;;;;;;11.68;5.28;;;;;;;19.24;100.00;94758.94;4978281;28;20089;-87
2022/06/15 01:05:51;;;;;;;16.90;5.25;;;;;;;19.02;100.00;94755.34;4978501;28;20039;-88
2022/06/15 01:08:44;;;;;;;10.75;5.28;;;;;;;19.14;100.00;94759.25;4978476;28;20038;-88
2022/06/15 01:11:16;;;;;;;11.27;5.30;;;;;;;19.40;100.00;94753.94;4979069;28;20424;-87
2022/06/15 01:13:59;;;;;;;9.60;4.75;;;;;;;19.57;100.00;94757.66;4978992;28;20034;-86
2022/06/15 01:16:28;;;;;;;;;;;;;;;19.82;100.00;94757.94;4979347;28;20031;-87
2022/06/15 01:19:13;;;;;;;6.53;4.40;;;;;;;19.84;100.00;94751.22;4977828;28;20259;-87
2022/06/15 01:22:01;;;;;;;7.07;4.50;;;;;;;19.91;100.00;94748.06;4977934;28;20057;-87
2022/06/15 01:24:39;;;;;;;7.22;4.78;;;;;;;19.86;100.00;94746.34;4959196;28;20043;-88
2022/06/15 01:27:26;;;;;;;13.57;4.90;;;;;;;19.86;100.00;94742.91;4978972;28;20050;-87
2022/06/15 01:30:29;;;;;;;6.68;4.82;;;;;;;19.68;100.00;94750.16;4978570;28;20058;-88
2022/06/15 01:33:05;;;;;;;9.25;4.65;;;;;;;19.87;100.00;94752.44;4955489;28;20043;-87
2022/06/15 01:35:34;;;;;;;11.15;4.50;;;;;;;20.01;100.00;94757.59;4961593;28;20376;-87
2022/06/15 01:38:21;;;;;;;7.10;4.55;;;;;;;19.66;100.00;94755.00;4977483;28;20034;-87
2022/06/15 01:41:34;;;;;;;9.52;4.60;;;;;;;19.26;100.00;94759.41;4977434;28;20081;-87
2022/06/15 01:44:14;;;;;;;7.40;4.70;;;;;;;19.51;100.00;94757.06;4975034;28;20101;-87
2022/06/15 01:46:43;;;;;;;8.45;4.80;;;;;;;19.39;100.00;94756.91;4961631;28;20037;-87
2022/06/15 01:49:11;;;;;;;10.73;4.63;;;;;;;19.34;100.00;94766.59;4977275;28;20027;-87
2022/06/15 01:51:42;;;;;;;7.13;4.50;;;;;;;19.42;100.00;94762.34;4977404;28;20425;-87
2022/06/15 01:54:11;;;;;;;10.98;4.93;;;;;;;19.33;100.00;94759.72;4977191;28;20030;-87
2022/06/15 01:56:39;;;;;;;8.77;4.72;;;;;;;19.46;100.00;94763.31;4977294;28;20472;-87
2022/06/15 01:59:16;;;;;;;9.73;4.65;;;;;;;19.61;100.00;94751.41;4978571;28;20429;-88
2022/06/15 02:02:06;;;;;;;10.38;5.65;;;;;;;19.50;100.00;94761.59;4961416;28;20189;-87
2022/06/15 02:04:45;;;;;;;8.38;4.60;;;;;;;19.78;100.00;94768.41;4977199;28;20034;-87
2022/06/15 02:07:17;;;;;;;15.02;4.57;;;;;;;19.71;100.00;94768.88;4961418;28;20069;-87
2022/06/15 02:09:51;;;;;;;15.02;4.88;;;;;;;19.51;100.00;94762.38;4977943;28;20030;-87
2022/06/15 02:12:21;;;;;;;8.65;4.70;;;;;;;19.58;100.00;94759.22;4977168;28;20031;-87
2022/06/15 02:14:52;;;;;;;9.50;4.88;;;;;;;19.20;100.00;94755.34;4976867;28;20037;-87
2022/06/15 02:17:26;;;;;;;7.95;4.68;;;;;;;19.17;100.00;94762.06;4977283;28;20030;-87
2022/06/15 02:19:57;;;;;;;11.25;5.28;;;;;;;18.79;100.00;94752.81;4961058;28;20447;-88
2022/06/15 02:22:26;;;;;;;10.43;5.43;;;;;;;18.67;100.00;94749.97;4961141;28;20036;-87
2022/06/15 02:24:54;;;;;;;10.05;5.25;;;;;;;18.62;100.00;94747.44;4960621;28;20041;-87
2022/06/15 02:27:22;;;;;;;12.82;5.57;;;;;;;18.63;100.00;94754.31;4976980;28;20034;-87
2022/06/15 02:29:49;;;;;;;8.65;4.93;;;;;;;18.64;100.00;94755.88;4977129;28;20113;-87
2022/06/15 02:32:17;;;;;;;12.68;5.32;;;;;;;18.59;100.00;94758.66;4976736;28;20452;-88
2022/06/15 02:34:43;;;;;;;7.82;5.30;;;;;;;18.53;100.00;94758.03;4976832;28;20445;-88
2022/06/15 02:37:10;;;;;;;9.50;4.93;;;;;;;18.56;100.00;94759.28;4960992;28;20352;-87
2022/06/15 02:39:35;;;;;;;14.15;5.35;;;;;;;18.59;100.00;94763.97;4976720;28;20069;-87
2022/06/15 02:42:23;;;;;;;9.93;4.88;;;;;;;18.77;100.00;94757.59;4976823;28;20034;-87
2022/06/15 02:44:49;;;;;;;5.82;4.03;;;;;;;18.98;100.00;94764.19;4976468;28;20034;-87
2022/06/15 02:47:16;;;;;;;8.80;4.18;;;;;;;19.21;100.00;94765.66;4976803;28;20035;-87
2022/06/15 02:49:44;;;;;;;10.20;4.20;;;;;;;19.35;100.00;94762.84;4976582;28;20082;-87
2022/06/15 02:52:11;;;;;;;9.88;4.05;;;;;;;19.26;100.00;94758.63;4978139;28;20157;-88
2022/06/15 02:54:49;;;;;;;7.03;4.05;;;;;;;19.40;100.00;94753.94;4977009;28;20042;-87
2022/06/15 02:57:17;;;;;;;7.90;4.40;;;;;;;19.26;100.00;94755.97;4976417;28;20330;-87
2022/06/15 02:59:44;;;;;;;13.35;4.15;;;;;;;19.45;100.00;94756.44;4976524;28;20054;-87
2022/06/15 03:02:14;;;;;;;10.10;3.72;;;;;;;19.50;100.00;94758.13;4976632;28;20027;-87
2022/06/15 03:04:40;;;;;;;8.93;3.75;;;;;;;19.62;100.00;94750.31;4976948;28;20034;-87
2022/06/15 03:07:06;;;;;;;7.93;3.22;;;;;;;19.64;100.00;94748.09;4978010;28;20429;-87
2022/06/15 03:09:32;;;;;;;10.85;4.53;;;;;;;19.42;100.00;94761.59;4977955;28;20031;-87
2022/06/15 03:11:57;;;;;;;6.13;3.47;;;;;;;19.51;100.00;94759.72;4976569;28;20031;-87
2022/06/15 03:14:23;;;;;;;5.40;3.70;;;;;;;19.57;100.00;94763.75;4960573;28;20074;-87
2022/06/15 03:16:49;;;;;;;5.43;3.58;;;;;;;19.48;100.00;94758.47;4976707;28;20610;-88
2022/06/15 03:19:15;;;;;;;5.60;3.60;;;;;;;19.23;100.00;94764.56;4976314;28;20030;-88
2022/06/15 03:21:40;;;;;;;8.85;4.32;;;;;;;19.31;100.00;94763.78;4982099;28;20037;-88
2022/06/15 03:24:06;;;;;;;5.63;3.60;;;;;;;19.40;100.00;94767.22;4964136;28;20039;-88
2022/06/15 03:26:32;;;;;;;10.10;3.50;;;;;;;19.61;100.00;94764.69;4985012;28;20038;-88
2022/06/15 03:28:58;;;;;;;6.13;3.58;;;;;;;19.59;100.00;94760.81;4985922;28;20034;-88
2022/06/15 03:31:27;;;;;;;4.93;4.13;;;;;;;19.60;100.00;94768.44;4982941;28;20042;-88
2022/06/15 03:33:53;;;;;;;6.03;3.65;;;;;;;19.51;100.00;94767.69;4976290;28;20082;-88
2022/06/15 03:36:19;;;;;;;7.28;3.63;;;;;;;19.44;100.00;94767.38;4976650;28;20383;-88
2022/06/15 03:38:44;;;;;;;6.68;3.60;;;;;;;19.44;100.00;94767.38;4959875;28;20031;-88
2022/06/15 03:41:09;;;;;;;8.13;4.35;;;;;;;19.06;100.00;94766.88;4981710;28;20395;-88
2022/06/15 03:43:35;;;;;;;13.95;3.95;;;;;;;18.48;100.00;94758.19;4979775;28;20034;-89
2022/06/15 03:46:00;;;;;;;8.43;4.10;;;;;;;18.51;100.00;94763.66;4983295;28;20022;-88
2022/06/15 03:48:26;;;;;;;13.20;4.22;;;;;;;18.29;100.00;94764.53;4999070;28;20030;-88
2022/06/15 03:50:51;;;;;;;13.48;4.03;;;;;;;18.39;100.00;94760.00;4982963;28;20340;-88
2022/06/15 03:53:16;;;;;;;5.43;4.10;;;;;;;18.75;100.00;94762.44;4982997;28;20033;-88
2022/06/15 03:55:43;;;;;;;6.38;3.92;;;;;;;18.97;100.00;94774.06;4987492;28;20125;-88
2022/06/15 03:58:16;;;;;;;7.32;3.88;;;;;;;18.83;100.00;94765.44;4979161;28;20121;-88
2022/06/15 04:00:42;;;;;;;5.30;3.80;;;;;;;18.93;100.00;94773.09;4963466;28;20034;-88
2022/06/15 04:03:08;;;;;;;7.03;4.38;;;;;;;18.85;100.00;94761.38;4979698;28;20084;-88
2022/06/15 04:05:37;;;;;;;9.68;4.57;;;;;;;18.64;100.00;94769.13;4963184;28;20035;-88
2022/06/15 04:10:47;;;;;;;7.78;3.72;;;;;;;18.72;100.00;94765.72;4979275;28;20049;-88
2022/06/15 04:13:14;;;;;;;7.70;3.97;;;;;;;19.06;100.00;94768.78;4963257;28;20023;-88
2022/06/15 04:15:40;;;;;;;6.47;3.90;;;;;;;19.18;100.00;94768.16;4963138;28;20030;-88
2022/06/15 04:18:05;;;;;;;7.22;3.78;;;;;;;19.06;100.00;94772.19;4978978;28;20329;-88
2022/06/15 04:20:33;;;;;;;9.27;4.13;;;;;;;18.82;100.00;94767.31;4963006;28;20034;-88
2022/06/15 04:23:05;;;;;;;10.60;4.35;;;;;;;18.84;100.00;94769.66;4963721;28;20039;-87
2022/06/15 04:25:33;;;;;;;8.75;3.97;;;;;;;19.00;100.00;94768.16;4979019;28;20037;-88
2022/06/15 04:27:59;;;;;;;6.40;3.88;;;;;;;19.30;100.00;94765.66;4962711;28;20038;-88
2022/06/15 04:30:25;;;;;;;6.65;4.10;;;;;;;19.51;100.00;94762.38;4979941;28;20049;-88
2022/06/15 04:32:51;;;;;;;7.63;3.72;;;;;;;19.59;100.00;94760.81;4962940;28;20037;-88
2022/06/15 04:35:17;;;;;;;8.57;3.92;;;;;;;18.91;100.00;94769.97;4962673;28;20027;-87
2022/06/15 04:37:43;;;;;;;6.88;3.97;;;;;;;19.15;100.00;94771.44;4963117;28;20041;-88
2022/06/15 04:40:09;;;;;;;6.13;3.90;;;;;;;19.50;100.00;94771.41;4979768;28;20030;-88
2022/06/15 04:42:36;;;;;;;6.82;4.15;;;;;;;19.78;100.00;94768.41;4979111;28;20023;-86
2022/06/15 04:45:01;;;;;;;9.85;4.00;;;;;;;19.82;100.00;94764.03;4979489;28;20440;-87
2022/06/15 04:47:27;;;;;;;5.35;3.88;;;;;;;19.78;100.00;94769.19;4979512;28;20029;-88
2022/06/15 04:49:52;;;;;;;7.03;3.60;;;;;;;19.87;100.00;94769.19;4978445;28;20037;-87
2022/06/15 04:52:17;;;;;;;11.38;3.75;;;;;;;19.77;100.00;94772.97;4978464;28;20033;-87
2022/06/15 04:54:43;;;;;;;8.00;3.85;;;;;;;20.02;100.00;94773.25;4962142;28;20027;-87
2022/06/15 04:57:08;;;;;;;6.55;4.25;;;;;;;19.65;100.00;94775.47;4978686;28;20030;-87
2022/06/15 04:59:34;;;;;;;5.85;3.28;;;;;;;20.02;100.00;94769.81;4978147;28;20031;-87
2022/06/15 05:01:59;;;;;;;7.43;3.67;;;;;;;20.12;100.00;94774.78;4978246;28;20033;-86
2022/06/15 05:04:27;;;;;;;7.57;3.38;;;;;;;20.24;100.00;94773.34;4979145;28;20409;-86
2022/06/15 05:06:53;;;;;;;8.30;3.40;;;;;;;20.43;100.00;94772.94;4979360;28;20034;-87
2022/06/15 05:09:18;;;;;;;7.03;4.13;;;;;;;20.40;100.00;94771.69;4977683;28;20034;-86
2022/06/15 05:11:44;;;;;;;4.75;3.40;;;;;;;20.54;100.00;94776.03;4977804;28;20039;-87
2022/06/15 05:14:10;;;;;;;5.65;3.63;;;;;;;20.33;100.00;94771.41;4979245;28;20054;-86
2022/06/15 05:16:39;;;;;;;8.85;3.85;;;;;;;19.94;100.00;94776.69;4978010;28;20037;-87
2022/06/15 05:19:04;;;;;;;8.00;3.70;;;;;;;19.86;100.00;94775.59;4962014;28;20042;-87
2022/06/15 05:21:30;;;;;;;8.73;3.65;;;;;;;19.77;100.00;94782.81;4979056;28;20034;-87
2022/06/15 05:23:56;;;;;;;5.80;3.97;;;;;;;19.96;100.00;94782.47;4979274;28;20065;-87
2022/06/15 05:26:24;;;;;;;5.85;3.40;;;;;;;19.98;100.00;94782.19;4977838;28;20440;-87
2022/06/15 05:28:50;;;;;;;6.95;3.42;;;;;;;20.56;100.00;94779.91;4977849;28;20404;-87
2022/06/15 05:31:21;;;;;;;5.13;3.05;;;;;;;21.08;100.00;94783.41;4977744;28;20106;-87
2022/06/15 05:33:53;;;;;;;5.63;3.72;;;;;;;21.21;100.00;94792.25;4977666;28;20042;-87
2022/06/15 05:36:20;;;;;;;5.07;3.63;;;;;;;21.41;100.00;94789.91;4978027;28;20097;-87
2022/06/15 05:38:45;;;;;;;9.38;3.75;;;;;;;21.60;100.00;94784.13;4977383;28;20031;-87
2022/06/15 05:41:11;;;;;;;5.75;3.15;;;;;;;21.77;100.00;94785.84;4961473;28;20460;-87
2022/06/15 05:44:19;;;;;;;7.90;3.58;;;;;;;21.92;100.00;94789.00;4978623;28;20089;-87
2022/06/15 05:46:31;;;;;;;6.80;3.65;;;;;;;21.95;100.00;94789.13;4975213;28;20038;-87
2022/06/15 05:48:58;;;;;;;6.57;3.25;;;;;;;21.31;100.00;94789.19;4992592;28;20379;-87
2022/06/15 05:51:24;;;;;;;7.97;3.97;;;;;;;21.25;100.00;94787.84;4981123;28;20364;-87
2022/06/15 05:53:49;;;;;;;6.40;3.88;;;;;;;21.74;100.00;94786.50;4961506;28;20026;-87
2022/06/15 05:56:16;;;;;;;7.35;3.40;;;;;;;22.21;100.00;94790.75;4977442;28;20077;-87
2022/06/15 05:58:41;;;;;;;7.35;3.45;;;;;;;22.41;100.00;94789.09;4977123;28;20022;-86
2022/06/15 06:01:25;;;;;;;6.90;3.60;;;;;;;22.58;100.00;94790.78;4961085;28;20025;-87
2022/06/15 06:03:51;;;;;;;4.57;3.38;;;;;;;22.77;100.00;94796.69;4977528;28;20097;-87
2022/06/15 06:06:16;;;;;;;10.63;3.78;;;;;;;22.88;100.00;94795.91;4978221;28;20038;-86
2022/06/15 06:08:42;;;;;;;6.50;3.55;;;;;;;22.85;100.00;94793.13;4960619;28;20027;-86
2022/06/15 06:11:07;;;;;;;8.52;3.47;;;;;;;22.80;100.00;94790.66;4961286;28;20038;-86
2022/06/15 06:13:33;;;;;;;9.25;3.70;;;;;;;23.07;100.00;94796.44;4960965;28;20031;-86
2022/06/15 06:15:58;;;;;;;6.63;3.50;;;;;;;23.20;100.00;94802.53;4961099;28;20042;-86
2022/06/15 06:18:24;;;;;;;8.07;4.00;;;;;;;23.29;100.00;94803.19;4960853;28;20125;-86
2022/06/15 06:20:50;;;;;;;7.40;3.33;;;;;;;22.61;100.00;94796.59;4952043;29;20035;-87
2022/06/15 06:23:16;;;;;;;8.00;3.60;;;;;;;22.61;100.00;94796.59;4957700;29;20027;-86
2022/06/15 06:25:43;;;;;;;7.35;3.72;;;;;;;22.99;100.00;94793.56;4957400;29;20065;-87
2022/06/15 06:28:28;;;;;;;9.68;4.10;;;;;;;23.02;100.00;94786.75;4941849;29;20449;-87
2022/06/15 06:30:57;;;;;;;7.32;3.80;;;;;;;22.86;100.00;94800.78;4957639;28;20027;-87
2022/06/15 06:33:23;;;;;;;6.40;3.50;;;;;;;22.90;100.00;94797.47;4957636;29;20117;-87
2022/06/15 06:35:48;;;;;;;6.25;3.88;;;;;;;23.27;100.00;94800.88;4957766;29;20037;-86
2022/06/15 06:38:14;;;;;;;10.18;3.90;;;;;;;22.99;100.00;94798.91;4958621;28;20031;-86
2022/06/15 06:40:40;;;;;;;8.93;4.20;;;;;;;22.86;100.00;94795.44;4957068;29;20025;-87
2022/06/15 06:43:05;;;;;;;5.85;3.42;;;;;;;23.29;100.00;94801.31;4957534;29;20121;-85
2022/06/15 06:45:31;;;;;;;4.72;3.65;;;;;;;23.19;100.00;94793.75;4958263;28;20059;-86
2022/06/15 06:47:59;;;;;;;4.90;3.35;;;;;;;23.53;100.00;94796.25;4957697;29;20023;-86
2022/06/15 06:50:24;;;;;;;8.90;3.45;;;;;;;23.71;100.00;94802.06;4957386;29;20069;-86
2022/06/15 06:52:49;;;;;;;6.70;3.47;;;;;;;23.48;100.00;94805.28;4958306;28;20444;-86
2022/06/15 06:55:15;;;;;;;9.02;4.03;;;;;;;23.37;100.00;94806.84;4941108;29;20041;-87
2022/06/15 06:57:41;;;;;;;4.68;3.60;;;;;;;23.53;100.00;94807.72;4958428;28;20027;-86
2022/06/15 07:00:07;;;;;;;9.07;3.63;;;;;;;23.78;100.00;94804.94;4957221;29;20500;-87
2022/06/15 07:02:33;;;;;;;6.00;3.67;;;;;;;23.77;100.00;94808.72;4957287;29;20035;-86
2022/06/15 07:04:58;;;;;;;4.82;3.60;;;;;;;24.21;100.00;94808.00;4957011;29;20027;-86
2022/06/15 07:07:24;;;;;;;7.43;3.47;;;;;;;23.71;100.00;94808.19;4958728;28;20035;-87
2022/06/15 07:09:49;;;;;;;5.55;3.67;;;;;;;23.84;100.00;94814.28;4958481;28;20027;-86
2022/06/15 07:12:15;;;;;;;11.65;4.13;;;;;;;24.17;100.00;94807.09;4958542;28;20035;-86
2022/06/15 07:14:40;;;;;;;6.72;3.25;;;;;;;23.83;100.00;94802.03;4957282;29;20031;-86
2022/06/15 07:17:06;;;;;;;5.40;3.67;;;;;;;24.23;100.00;94803.06;4956960;29;20033;-86
2022/06/15 07:19:31;;;;;;;7.90;3.55;;;;;;;24.24;100.00;94801.94;4960073;28;20031;-86
2022/06/15 07:21:56;;;;;;;4.35;3.40;;;;;;;24.37;100.00;94796.50;4961694;28;20339;-86
2022/06/15 07:24:22;;;;;;;9.48;3.95;;;;;;;24.19;100.00;94801.41;4960595;29;20445;-87
2022/06/15 07:26:47;;;;;;;7.82;3.97;;;;;;;23.75;100.00;94805.63;4977017;28;20692;-87
2022/06/15 07:29:17;;;;;;;5.85;3.70;;;;;;;24.39;100.00;94807.66;4960581;29;20115;-86
2022/06/15 07:31:46;;;;;;;8.45;4.03;;;;;;;24.64;100.00;94802.13;4960392;29;20023;-86
2022/06/15 07:34:12;;;;;;;8.90;3.80;;;;;;;24.76;100.00;94798.56;4960614;29;20105;-86
2022/06/15 07:36:39;;;;;;;7.57;3.78;;;;;;;24.79;100.00;94798.66;4960306;29;20023;-86
2022/06/15 07:39:06;;;;;;;9.95;4.57;;;;;;;25.02;100.00;94802.59;4960356;28;20054;-88
2022/06/15 07:41:32;;;;;;;10.77;3.55;;;;;;;25.19;100.00;94796.09;4960700;28;20177;-87
2022/06/15 07:43:58;;;;;;;7.10;3.90;;;;;;;25.09;100.00;94800.84;4960868;29;20118;-86
2022/06/15 07:46:24;;;;;;;8.23;4.30;;;;;;;25.27;100.00;94806.59;4960481;29;20158;-88
2022/06/15 07:51:38;;;;;;;9.18;3.92;;;;;;;25.36;100.00;94805.59;4960327;29;20089;-86
2022/06/15 07:54:05;;;;;;;9.25;4.07;;;;;;;25.49;100.00;94807.06;4944138;29;20070;-88
2022/06/15 07:56:32;;;;;;;6.55;4.10;;;;;;;25.42;100.00;94806.91;4960214;29;20388;-87
2022/06/15 07:58:58;;;;;;;9.93;4.25;;;;;;;25.05;100.00;94800.00;4960290;29;20031;-86
2022/06/15 08:01:24;;;;;;;8.05;4.47;;;;;;;25.54;100.00;94806.00;4959905;29;20023;-88
2022/06/15 08:03:50;;;;;;;9.32;4.32;;;;;;;25.29;100.00;94800.09;4976367;28;20030;-87
2022/06/15 08:06:15;;;;;;;9.70;4.32;;;;;;;25.56;100.00;94806.41;4960470;29;20135;-87
2022/06/15 08:08:42;;;;;;;10.73;4.80;;;;;;;25.28;100.00;94804.69;4959839;29;20321;-88
2022/06/15 08:11:08;;;;;;;10.13;4.60;;;;;;;25.55;100.00;94811.03;4959946;29;20519;-86
2022/06/15 08:13:33;;;;;;;10.43;4.65;;;;;;;25.52;100.00;94810.94;4959978;29;20058;-87
2022/06/15 08:15:59;;;;;;;14.65;4.18;;;;;;;25.80;100.00;94824.13;4961026;28;20027;-87
2022/06/15 08:18:27;;;;;;;19.90;4.50;;;;;;;25.77;100.00;94816.78;4959839;29;20054;-85
2022/06/15 08:20:59;;;;;;;12.85;4.13;;;;;;;25.78;100.00;94815.66;4959392;29;20118;-87
2022/06/15 08:23:28;;;;;;;13.88;4.68;;;;;;;25.61;100.00;94816.09;4959817;29;20059;-86
2022/06/15 08:25:57;;;;;;;8.07;3.92;;;;;;;26.01;100.00;94823.00;4959551;29;20043;-88
2022/06/15 08:28:25;;;;;;;8.90;4.45;;;;;;;25.81;100.00;94814.19;4959708;29;20031;-87
2022/06/15 08:30:52;;;;;;;7.60;4.13;;;;;;;26.05;100.00;94817.69;4960331;28;20046;-88
2022/06/15 08:33:18;;;;;;;13.23;5.30;;;;;;;26.19;100.00;94822.56;4959511;29;20089;-87
2022/06/15 08:35:43;;;;;;;11.10;4.57;;;;;;;26.11;100.00;94819.75;4959559;29;20039;-88
2022/06/15 08:38:12;;;;;;;11.98;4.75;;;;;;;26.22;100.00;94819.94;4943733;29;20322;-87
2022/06/15 08:40:49;;;;;;;10.38;4.80;;;;;;;26.15;100.00;94821.69;4959283;29;20352;-88
2022/06/15 08:43:30;;;;;;;10.82;4.57;;;;;;;26.15;100.00;94817.09;4959362;28;20065;-86
2022/06/15 08:46:03;;;;;;;6.93;3.97;;;;;;;26.53;100.00;94820.06;4960534;28;20039;-87
2022/06/15 08:48:46;;;;;;;16.45;4.55;;;;;;;26.64;100.00;94820.25;4959249;29;20043;-87
2022/06/15 08:51:19;;;;;;;7.20;4.10;;;;;;;26.76;100.00;94821.94;4960159;28;20027;-87
2022/06/15 08:53:59;;;;;;;12.75;4.60;;;;;;;26.58;100.00;94819.78;4959278;29;20054;-86
2022/06/15 08:56:31;;;;;;;12.85;4.25;;;;;;;26.96;100.00;94820.75;4960034;28;20457;-89
2022/06/15 08:59:10;;;;;;;10.80;4.20;;;;;;;26.58;100.00;94819.78;4974055;28;20038;-90
2022/06/15 09:01:46;;;;;;;10.27;4.05;;;;;;;26.92;100.00;94816.47;4979355;28;20391;-85
2022/06/15 09:04:21;;;;;;;7.78;4.30;;;;;;;27.31;100.00;94823.53;4962210;28;20034;-88
2022/06/15 09:06:57;;;;;;;12.63;4.28;;;;;;;27.45;100.00;94831.00;4978318;28;20045;-91
2022/06/15 09:09:41;;;;;;;14.73;4.50;;;;;;;27.26;100.00;94831.91;4979060;28;20403;-89
2022/06/15 09:15:38;;;;;;;9.80;4.40;;;;;;;27.38;100.00;94837.06;4958812;29;20043;-86
2022/06/15 09:18:26;;;;;;;16.83;3.85;;;;;;;27.44;100.00;94834.81;4968187;28;20030;-90
2022/06/15 09:21:01;;;;;;;16.58;7.63;;;;;;;27.73;100.00;94835.19;4977831;28;20405;-91
2022/06/15 09:23:45;;;;;;;15.13;7.63;;;;;;;28.09;100.00;94836.38;4962153;28;20125;-91
2022/06/15 09:26:38;;;;;;;12.10;5.30;;;;;;;28.24;100.00;94833.09;4978677;28;20030;-90
2022/06/15 09:29:11;;;;;;;10.30;4.25;;;;;;;29.27;100.00;94830.81;4977491;28;20432;-91
2022/06/15 09:32:01;;;;;;;12.85;4.35;;;;;;;29.00;100.00;94828.34;4958287;29;20035;-90
2022/06/15 09:34:39;;;;;;;10.02;4.80;;;;;;;28.98;100.00;94826.00;4942641;29;20516;-90
2022/06/15 09:37:17;;;;;;;11.38;5.28;;;;;;;28.47;100.00;94822.13;4942568;29;20410;-89
2022/06/15 09:39:43;;;;;;;6.13;4.15;;;;;;;29.05;100.00;94819.88;4942451;28;20032;-90
2022/06/15 09:42:29;;;;;;;8.32;3.88;;;;;;;28.60;100.00;94822.63;4957598;28;20039;-92
2022/06/15 09:45:13;;;;;;;9.23;5.00;;;;;;;27.75;100.00;94814.88;4958110;29;20023;-90
2022/06/15 09:51:19;;;;;;;9.48;4.40;;;;;;;27.61;100.00;94818.16;4958933;29;20042;-91
2022/06/15 09:53:51;;;;;;;12.63;5.20;;;;;;;27.70;100.00;94823.28;4942558;29;20027;-90
2022/06/15 09:56:18;;;;;;;6.35;4.68;;;;;;;28.61;100.00;94816.84;4959103;28;20031;-90
2022/06/15 09:58:48;;;;;;;8.73;4.60;;;;;;;28.82;100.00;94814.72;4941744;29;20035;-91
2022/06/15 10:01:14;;;;;;;10.63;4.72;;;;;;;27.85;100.00;94816.13;4943214;29;20033;-92
2022/06/15 10:03:43;;;;;;;8.70;3.70;;;;;;;27.90;85.19;94810.44;4941919;29;20089;-89
2022/06/15 10:06:32;;;;;;;8.20;3.97;;;;;;;28.14;84.35;94804.88;4979518;28;20129;-90
2022/06/15 10:08:59;;;;;;;6.65;4.00;;;;;;;28.51;85.59;94812.16;4971090;28;20022;-90
2022/06/15 10:11:33;;;;;;;7.00;3.78;;;;;;;28.94;78.02;94809.03;4981944;28;20053;-89
2022/06/15 10:14:16;;;;;;;13.27;4.60;;;;;;;28.95;86.75;94810.59;4977189;28;20457;-90
2022/06/15 10:16:41;;;;;;;;;;;;;;;29.13;94.70;94809.91;4961740;28;20038;-91
2022/06/15 10:19:10;;;;;;;9.87;4.60;;;;;;;29.03;100.00;94808.69;4977577;28;19914;-91
2022/06/15 10:21:37;;;;;;;10.32;4.50;;;;;;;29.21;100.00;94809.56;4977353;28;20483;-91
2022/06/15 10:24:02;;;;;;;7.30;4.55;;;;;;;29.16;100.00;94809.16;4977984;28;20119;-92
2022/06/15 10:26:46;;;;;;;11.98;5.95;;;;;;;28.15;100.00;94806.44;4978059;28;20066;-89
2022/06/15 10:29:14;;;;;;;;;;;;;;;28.63;100.00;94809.16;4977500;28;20023;-90
2022/06/15 10:31:40;;;;;;;11.15;5.22;;;;;;;28.47;100.00;94805.97;4978307;28;19910;-91
2022/06/15 10:34:30;;;;;;;8.55;5.53;;;;;;;29.12;100.00;94806.44;4976980;28;20035;-91
2022/06/15 10:36:59;;;;;;;7.90;4.68;;;;;;;29.85;99.26;94814.88;4976843;28;20026;-90
2022/06/15 10:39:31;;;;;;;7.93;5.38;;;;;;;28.86;100.00;94804.72;4972161;28;20090;-90
2022/06/15 10:42:09;;;;;;;9.68;4.80;;;;;;;28.54;100.00;94802.56;4976864;28;20031;-89
2022/06/15 10:44:58;;;;;;;15.70;5.57;;;;;;;29.09;100.00;94798.34;4960654;28;20022;-87
2022/06/15 10:47:34;;;;;;;10.10;4.95;;;;;;;30.02;100.00;94797.16;4971820;28;20038;-92
2022/06/15 10:50:02;;;;;;;7.80;5.00;;;;;;;30.73;96.66;94800.38;4977529;28;20429;-91
2022/06/15 10:52:39;;;;;;;7.82;4.53;;;;;;;30.81;92.21;94799.19;4976789;28;20366;-90
2022/06/15 11:04:34;;;;;;;11.60;5.07;;;;;;;29.49;100.00;94788.53;4980384;28;20042;-92
2022/06/15 11:07:25;;;;;;;12.90;5.20;;;;;;;30.57;100.00;94787.19;4981311;28;20099;-93
2022/06/15 11:09:53;;;;;;;10.02;5.63;;;;;;;29.69;100.00;94788.97;4982059;28;20026;-92
2022/06/15 11:12:30;;;;;;;11.77;5.63;;;;;;;30.56;99.46;94785.66;4981795;28;20030;-92
2022/06/15 11:15:05;;;;;;;10.30;6.68;;;;;;;30.42;100.00;94787.19;4980841;28;20058;-90
2022/06/15 11:20:33;;;;;;;13.60;6.55;;;;;;;29.94;100.00;94784.81;4979982;28;20057;-89
2022/06/15 11:23:14;;;;;;;11.25;5.43;;;;;;;30.83;100.00;94782.56;4981431;28;20062;-90
2022/06/15 11:29:45;;;;;;;11.50;7.15;;;;;;;29.27;100.00;94782.25;4980513;28;20041;-91
2022/06/15 11:32:32;;;;;;;12.00;6.40;;;;;;;29.38;100.00;94788.44;4980354;28;20033;-93
2022/06/15 11:35:21;;;;;;;14.20;6.82;;;;;;;29.03;100.00;94787.88;4980718;28;20038;-93
2022/06/15 11:38:21;;;;;;;16.75;6.43;;;;;;;29.88;100.00;94792.50;4964045;28;20038;-91
2022/06/15 11:40:51;;;;;;;8.77;5.97;;;;;;;30.86;100.00;94796.09;4960295;28;20038;-90
2022/06/15 11:43:36;;;;;;;16.08;5.90;;;;;;;31.09;100.00;94789.47;4979840;28;20121;-90
2022/06/15 11:46:43;;;;;;;10.00;6.28;;;;;;;30.14;100.00;94790.66;4980485;28;20349;-92
2022/06/15 11:49:21;;;;;;;10.05;6.70;;;;;;;30.21;100.00;94784.50;4961311;28;20046;-92
2022/06/15 11:52:17;;;;;;;11.85;7.03;;;;;;;29.73;100.00;94787.06;4980876;28;20026;-92
2022/06/15 11:55:01;;;;;;;12.80;6.63;;;;;;;28.23;100.00;94781.13;4980022;28;20022;-94
2022/06/15 11:57:35;;;;;;;23.63;8.18;;;;;;;27.97;100.00;94771.25;4980938;28;20495;-91
2022/06/15 12:00:09;;;;;;;12.48;7.75;;;;;;;28.13;100.00;94779.09;4981171;28;20138;-93
2022/06/15 12:03:05;;;;;;;17.45;10.07;;;;;;;27.91;100.00;94787.75;4980679;28;20027;-92
2022/06/15 12:05:38;;;;;;;12.55;7.72;;;;;;;28.08;100.00;94786.34;4959367;28;20042;-92
2022/06/15 12:08:21;;;;;;;16.63;9.30;;;;;;;27.79;100.00;94783.38;4980137;28;20026;-92